sensor_id;sensor_type;location;lat;lon;timestamp;temperature;humidity
34776;DHT22;20989;52.566;13.346;2022-07-01T00:00:27;28.10;48.10
34776;DHT22;20989;52.566;13.346;2022-07-01T00:03:27;28.10;48.10
34776;DHT22;20989;52.566;13.346;2022-07-01T00:06:29;28.10;48.10
34776;DHT22;20989;52.566;13.346;2022-07-01T00:09:30;28.10;48.10
34776;DHT22;20989;52.566;13.346;2022-07-01T00:12:31;28.10;48.10
34776;DHT22;20989;52.566;13.346;2022-07-01T00:15:32;28.10;48.10
34776;DHT22;20989;52.566;13.346;2022-07-01T00:18:33;28.10;48.10
34776;DHT22;20989;52.566;13.346;2022-07-01T00:21:34;28.10;48.00
34776;DHT22;20989;52.566;13.346;2022-07-01T00:24:34;28.10;48.00
34776;DHT22;20989;52.566;13.346;2022-07-01T00:27:39;28.10;48.10
34776;DHT22;20989;52.566;13.346;2022-07-01T00:30:40;28.10;48.10
34776;DHT22;20989;52.566;13.346;2022-07-01T00:33:41;28.10;48.10
34776;DHT22;20989;52.566;13.346;2022-07-01T00:36:41;28.10;48.10
34776;DHT22;20989;52.566;13.346;2022-07-01T00:39:42;28.10;48.10
34776;DHT22;20989;52.566;13.346;2022-07-01T00:42:43;28.10;48.10
34776;DHT22;20989;52.566;13.346;2022-07-01T00:45:46;28.10;48.10
34776;DHT22;20989;52.566;13.346;2022-07-01T00:48:48;28.00;48.00
34776;DHT22;20989;52.566;13.346;2022-07-01T00:51:49;28.10;48.10
34776;DHT22;20989;52.566;13.346;2022-07-01T00:54:50;28.00;48.00
34776;DHT22;20989;52.566;13.346;2022-07-01T00:57:53;28.00;48.00
34776;DHT22;20989;52.566;13.346;2022-07-01T01:00:56;28.00;48.00
34776;DHT22;20989;52.566;13.346;2022-07-01T01:03:56;28.10;48.10
34776;DHT22;20989;52.566;13.346;2022-07-01T01:06:57;28.00;48.00
34776;DHT22;20989;52.566;13.346;2022-07-01T01:10:02;28.00;48.00
34776;DHT22;20989;52.566;13.346;2022-07-01T01:13:04;28.00;48.00
34776;DHT22;20989;52.566;13.346;2022-07-01T01:16:05;28.00;48.00
34776;DHT22;20989;52.566;13.346;2022-07-01T01:19:06;28.00;48.00
34776;DHT22;20989;52.566;13.346;2022-07-01T01:22:07;28.00;48.00
34776;DHT22;20989;52.566;13.346;2022-07-01T01:25:08;28.00;48.00
34776;DHT22;20989;52.566;13.346;2022-07-01T01:28:10;28.00;48.00
34776;DHT22;20989;52.566;13.346;2022-07-01T01:31:10;28.10;48.10
34776;DHT22;20989;52.566;13.346;2022-07-01T01:34:11;28.00;48.00
34776;DHT22;20989;52.566;13.346;2022-07-01T01:37:12;28.00;48.00
34776;DHT22;20989;52.566;13.346;2022-07-01T01:40:13;28.00;48.00
34776;DHT22;20989;52.566;13.346;2022-07-01T01:43:16;28.00;48.00
34776;DHT22;20989;52.566;13.346;2022-07-01T01:46:17;28.00;48.10
34776;DHT22;20989;52.566;13.346;2022-07-01T01:49:18;28.00;48.10
34776;DHT22;20989;52.566;13.346;2022-07-01T01:52:18;28.00;48.10
34776;DHT22;20989;52.566;13.346;2022-07-01T01:55:19;28.00;48.00
34776;DHT22;20989;52.566;13.346;2022-07-01T01:58:20;28.00;48.00
34776;DHT22;20989;52.566;13.346;2022-07-01T02:01:21;28.00;48.10
34776;DHT22;20989;52.566;13.346;2022-07-01T02:04:22;28.00;48.00
34776;DHT22;20989;52.566;13.346;2022-07-01T02:07:25;28.00;48.10
34776;DHT22;20989;52.566;13.346;2022-07-01T02:10:26;28.00;48.00
34776;DHT22;20989;52.566;13.346;2022-07-01T02:13:27;28.00;48.00
34776;DHT22;20989;52.566;13.346;2022-07-01T02:16:27;28.00;48.00
34776;DHT22;20989;52.566;13.346;2022-07-01T02:19:28;28.00;48.00
34776;DHT22;20989;52.566;13.346;2022-07-01T02:22:29;28.00;48.10
34776;DHT22;20989;52.566;13.346;2022-07-01T02:25:29;28.00;48.10
34776;DHT22;20989;52.566;13.346;2022-07-01T02:28:30;28.00;48.00
34776;DHT22;20989;52.566;13.346;2022-07-01T02:31:31;27.90;48.00
34776;DHT22;20989;52.566;13.346;2022-07-01T02:34:31;28.00;48.00
34776;DHT22;20989;52.566;13.346;2022-07-01T02:37:32;28.00;48.00
34776;DHT22;20989;52.566;13.346;2022-07-01T02:40:35;28.00;48.00
34776;DHT22;20989;52.566;13.346;2022-07-01T02:43:38;27.90;47.90
34776;DHT22;20989;52.566;13.346;2022-07-01T02:46:39;27.90;47.90
34776;DHT22;20989;52.566;13.346;2022-07-01T02:49:39;28.00;48.10
34776;DHT22;20989;52.566;13.346;2022-07-01T02:52:41;28.00;48.10
34776;DHT22;20989;52.566;13.346;2022-07-01T02:55:42;28.00;48.00
34776;DHT22;20989;52.566;13.346;2022-07-01T02:58:42;28.00;48.10
34776;DHT22;20989;52.566;13.346;2022-07-01T03:01:43;27.90;48.00
34776;DHT22;20989;52.566;13.346;2022-07-01T03:04:44;27.90;48.00
34776;DHT22;20989;52.566;13.346;2022-07-01T03:07:44;27.90;48.00
34776;DHT22;20989;52.566;13.346;2022-07-01T03:10:45;27.90;48.00
34776;DHT22;20989;52.566;13.346;2022-07-01T03:13:46;27.90;48.00
34776;DHT22;20989;52.566;13.346;2022-07-01T03:16:46;27.90;48.00
34776;DHT22;20989;52.566;13.346;2022-07-01T03:19:47;27.90;48.00
34776;DHT22;20989;52.566;13.346;2022-07-01T03:22:48;27.90;48.00
34776;DHT22;20989;52.566;13.346;2022-07-01T03:25:50;27.90;48.00
34776;DHT22;20989;52.566;13.346;2022-07-01T03:28:51;27.90;48.10
34776;DHT22;20989;52.566;13.346;2022-07-01T03:31:51;27.90;48.00
34776;DHT22;20989;52.566;13.346;2022-07-01T03:34:53;27.90;48.00
34776;DHT22;20989;52.566;13.346;2022-07-01T03:37:57;27.90;48.00
34776;DHT22;20989;52.566;13.346;2022-07-01T03:40:58;27.90;48.00
34776;DHT22;20989;52.566;13.346;2022-07-01T03:43:59;27.90;48.00
34776;DHT22;20989;52.566;13.346;2022-07-01T03:46:59;27.90;48.10
34776;DHT22;20989;52.566;13.346;2022-07-01T03:50:00;27.90;48.00
34776;DHT22;20989;52.566;13.346;2022-07-01T03:53:01;27.90;48.10
34776;DHT22;20989;52.566;13.346;2022-07-01T03:56:20;27.90;48.00
34776;DHT22;20989;52.566;13.346;2022-07-01T03:59:21;27.90;48.10
34776;DHT22;20989;52.566;13.346;2022-07-01T04:02:21;27.90;48.00
34776;DHT22;20989;52.566;13.346;2022-07-01T04:05:23;27.90;48.00
34776;DHT22;20989;52.566;13.346;2022-07-01T04:08:24;27.90;48.10
34776;DHT22;20989;52.566;13.346;2022-07-01T04:11:24;27.90;48.10
34776;DHT22;20989;52.566;13.346;2022-07-01T04:14:25;27.90;48.10
34776;DHT22;20989;52.566;13.346;2022-07-01T04:17:26;27.90;48.00
34776;DHT22;20989;52.566;13.346;2022-07-01T04:20:27;27.90;48.10
34776;DHT22;20989;52.566;13.346;2022-07-01T04:23:28;27.90;48.10
34776;DHT22;20989;52.566;13.346;2022-07-01T04:26:28;27.90;48.10
34776;DHT22;20989;52.566;13.346;2022-07-01T04:29:29;27.90;48.10
34776;DHT22;20989;52.566;13.346;2022-07-01T04:32:30;27.90;48.10
34776;DHT22;20989;52.566;13.346;2022-07-01T04:35:31;27.90;48.10
34776;DHT22;20989;52.566;13.346;2022-07-01T04:38:31;27.90;48.10
34776;DHT22;20989;52.566;13.346;2022-07-01T04:41:33;27.90;48.10
34776;DHT22;20989;52.566;13.346;2022-07-01T04:44:52;27.90;48.10
34776;DHT22;20989;52.566;13.346;2022-07-01T04:47:53;27.90;48.10
34776;DHT22;20989;52.566;13.346;2022-07-01T04:50:53;27.90;48.20
34776;DHT22;20989;52.566;13.346;2022-07-01T04:53:54;27.90;48.10
34776;DHT22;20989;52.566;13.346;2022-07-01T04:56:55;27.90;48.10
34776;DHT22;20989;52.566;13.346;2022-07-01T05:03:37;27.90;48.20
34776;DHT22;20989;52.566;13.346;2022-07-01T05:06:38;27.90;48.20
34776;DHT22;20989;52.566;13.346;2022-07-01T05:09:38;27.90;48.20
34776;DHT22;20989;52.566;13.346;2022-07-01T05:12:39;27.90;48.30
34776;DHT22;20989;52.566;13.346;2022-07-01T05:15:40;27.90;48.20
34776;DHT22;20989;52.566;13.346;2022-07-01T05:18:41;27.90;48.20
34776;DHT22;20989;52.566;13.346;2022-07-01T05:22:10;27.90;48.20
34776;DHT22;20989;52.566;13.346;2022-07-01T05:25:11;27.90;48.30
34776;DHT22;20989;52.566;13.346;2022-07-01T05:28:12;27.90;48.40
34776;DHT22;20989;52.566;13.346;2022-07-01T05:31:13;27.90;48.30
34776;DHT22;20989;52.566;13.346;2022-07-01T05:34:14;27.90;48.30
34776;DHT22;20989;52.566;13.346;2022-07-01T05:37:14;27.90;48.30
34776;DHT22;20989;52.566;13.346;2022-07-01T05:40:18;27.90;49.00
34776;DHT22;20989;52.566;13.346;2022-07-01T05:43:19;27.90;49.50
34776;DHT22;20989;52.566;13.346;2022-07-01T05:46:19;28.00;49.20
34776;DHT22;20989;52.566;13.346;2022-07-01T05:49:20;28.00;48.80
34776;DHT22;20989;52.566;13.346;2022-07-01T05:52:20;28.00;48.60
34776;DHT22;20989;52.566;13.346;2022-07-01T05:55:21;28.10;48.40
34776;DHT22;20989;52.566;13.346;2022-07-01T05:58:22;28.10;48.40
34776;DHT22;20989;52.566;13.346;2022-07-01T06:01:23;28.10;49.30
34776;DHT22;20989;52.566;13.346;2022-07-01T06:04:24;28.20;49.70
34776;DHT22;20989;52.566;13.346;2022-07-01T06:07:25;28.20;50.50
34776;DHT22;20989;52.566;13.346;2022-07-01T06:10:25;28.20;52.60
34776;DHT22;20989;52.566;13.346;2022-07-01T06:13:26;28.10;52.90
34776;DHT22;20989;52.566;13.346;2022-07-01T06:16:29;28.00;53.70
34776;DHT22;20989;52.566;13.346;2022-07-01T06:19:30;28.00;53.80
34776;DHT22;20989;52.566;13.346;2022-07-01T06:22:31;28.00;53.20
34776;DHT22;20989;52.566;13.346;2022-07-01T06:25:31;28.10;53.60
34776;DHT22;20989;52.566;13.346;2022-07-01T06:28:32;28.10;53.80
34776;DHT22;20989;52.566;13.346;2022-07-01T06:31:32;28.10;54.00
34776;DHT22;20989;52.566;13.346;2022-07-01T06:34:34;28.10;54.60
34776;DHT22;20989;52.566;13.346;2022-07-01T06:37:35;28.10;54.20
34776;DHT22;20989;52.566;13.346;2022-07-01T06:40:36;28.00;54.20
34776;DHT22;20989;52.566;13.346;2022-07-01T06:43:37;28.10;54.80
34776;DHT22;20989;52.566;13.346;2022-07-01T06:46:37;28.00;56.30
34776;DHT22;20989;52.566;13.346;2022-07-01T06:49:38;28.00;56.60
34776;DHT22;20989;52.566;13.346;2022-07-01T06:52:40;28.10;55.50
34776;DHT22;20989;52.566;13.346;2022-07-01T06:55:40;28.10;54.30
34776;DHT22;20989;52.566;13.346;2022-07-01T06:58:41;28.20;54.10
34776;DHT22;20989;52.566;13.346;2022-07-01T07:01:42;28.30;54.60
34776;DHT22;20989;52.566;13.346;2022-07-01T07:04:42;28.30;54.30
34776;DHT22;20989;52.566;13.346;2022-07-01T07:07:43;28.40;53.10
34776;DHT22;20989;52.566;13.346;2022-07-01T07:10:44;28.40;52.80
34776;DHT22;20989;52.566;13.346;2022-07-01T07:13:44;28.50;52.70
34776;DHT22;20989;52.566;13.346;2022-07-01T07:16:45;28.50;52.30
34776;DHT22;20989;52.566;13.346;2022-07-01T07:19:46;28.50;52.10
34776;DHT22;20989;52.566;13.346;2022-07-01T07:22:46;28.50;51.90
34776;DHT22;20989;52.566;13.346;2022-07-01T07:25:47;28.40;52.60
34776;DHT22;20989;52.566;13.346;2022-07-01T07:28:48;28.40;52.60
34776;DHT22;20989;52.566;13.346;2022-07-01T07:31:48;28.40;52.40
34776;DHT22;20989;52.566;13.346;2022-07-01T07:34:49;28.40;52.60
34776;DHT22;20989;52.566;13.346;2022-07-01T07:37:49;28.40;52.60
34776;DHT22;20989;52.566;13.346;2022-07-01T07:40:50;28.30;52.40
34776;DHT22;20989;52.566;13.346;2022-07-01T07:43:51;28.30;52.50
34776;DHT22;20989;52.566;13.346;2022-07-01T07:46:51;28.30;52.30
34776;DHT22;20989;52.566;13.346;2022-07-01T07:49:52;28.20;52.20
34776;DHT22;20989;52.566;13.346;2022-07-01T07:52:52;28.30;52.00
34776;DHT22;20989;52.566;13.346;2022-07-01T07:55:53;28.30;51.90
34776;DHT22;20989;52.566;13.346;2022-07-01T07:58:54;28.40;51.70
34776;DHT22;20989;52.566;13.346;2022-07-01T08:01:54;28.40;51.60
34776;DHT22;20989;52.566;13.346;2022-07-01T08:04:55;28.40;51.50
34776;DHT22;20989;52.566;13.346;2022-07-01T08:07:56;28.40;51.30
34776;DHT22;20989;52.566;13.346;2022-07-01T08:10:56;28.40;51.20
34776;DHT22;20989;52.566;13.346;2022-07-01T08:13:57;28.40;51.10
34776;DHT22;20989;52.566;13.346;2022-07-01T08:16:57;28.40;51.10
34776;DHT22;20989;52.566;13.346;2022-07-01T08:19:58;28.40;51.10
34776;DHT22;20989;52.566;13.346;2022-07-01T08:22:59;28.40;50.80
34776;DHT22;20989;52.566;13.346;2022-07-01T08:26:00;28.40;51.10
34776;DHT22;20989;52.566;13.346;2022-07-01T08:29:00;28.40;51.20
34776;DHT22;20989;52.566;13.346;2022-07-01T08:32:01;28.40;51.30
34776;DHT22;20989;52.566;13.346;2022-07-01T08:35:01;28.40;51.20
34776;DHT22;20989;52.566;13.346;2022-07-01T08:38:03;28.30;51.10
34776;DHT22;20989;52.566;13.346;2022-07-01T08:41:04;28.30;51.20
34776;DHT22;20989;52.566;13.346;2022-07-01T08:44:05;28.40;51.10
34776;DHT22;20989;52.566;13.346;2022-07-01T08:47:05;28.40;51.30
34776;DHT22;20989;52.566;13.346;2022-07-01T08:50:11;28.30;51.70
34776;DHT22;20989;52.566;13.346;2022-07-01T08:53:12;28.30;51.80
34776;DHT22;20989;52.566;13.346;2022-07-01T08:56:14;28.40;52.00
34776;DHT22;20989;52.566;13.346;2022-07-01T08:59:33;28.40;51.70
34776;DHT22;20989;52.566;13.346;2022-07-01T09:02:55;28.40;51.60
34776;DHT22;20989;52.566;13.346;2022-07-01T09:05:56;28.40;51.70
34776;DHT22;20989;52.566;13.346;2022-07-01T09:09:16;28.40;51.60
34776;DHT22;20989;52.566;13.346;2022-07-01T09:12:17;28.40;52.30
34776;DHT22;20989;52.566;13.346;2022-07-01T09:15:28;28.40;52.10
34776;DHT22;20989;52.566;13.346;2022-07-01T09:18:29;28.40;51.60
34776;DHT22;20989;52.566;13.346;2022-07-01T09:21:31;28.40;52.20
34776;DHT22;20989;52.566;13.346;2022-07-01T09:24:40;28.50;52.30
34776;DHT22;20989;52.566;13.346;2022-07-01T09:27:42;28.20;52.40
34776;DHT22;20989;52.566;13.346;2022-07-01T09:30:45;27.80;53.30
34776;DHT22;20989;52.566;13.346;2022-07-01T09:34:05;27.40;53.60
34776;DHT22;20989;52.566;13.346;2022-07-01T09:37:06;26.70;55.50
34776;DHT22;20989;52.566;13.346;2022-07-01T09:40:07;26.60;55.40
34776;DHT22;20989;52.566;13.346;2022-07-01T09:46:26;26.30;55.40
34776;DHT22;20989;52.566;13.346;2022-07-01T09:49:27;25.80;56.50
34776;DHT22;20989;52.566;13.346;2022-07-01T09:52:28;25.60;56.70
34776;DHT22;20989;52.566;13.346;2022-07-01T09:55:29;25.10;57.90
34776;DHT22;20989;52.566;13.346;2022-07-01T09:58:30;25.60;56.40
34776;DHT22;20989;52.566;13.346;2022-07-01T10:01:38;25.10;57.30
34776;DHT22;20989;52.566;13.346;2022-07-01T10:04:42;24.70;58.20
34776;DHT22;20989;52.566;13.346;2022-07-01T10:14:29;24.80;57.70
34776;DHT22;20989;52.566;13.346;2022-07-01T10:17:35;25.00;57.50
34776;DHT22;20989;52.566;13.346;2022-07-01T10:20:37;24.70;57.90
34776;DHT22;20989;52.566;13.346;2022-07-01T10:23:39;24.50;58.90
34776;DHT22;20989;52.566;13.346;2022-07-01T10:26:41;25.00;56.90
34776;DHT22;20989;52.566;13.346;2022-07-01T10:29:42;24.70;57.40
34776;DHT22;20989;52.566;13.346;2022-07-01T10:32:48;24.50;57.70
34776;DHT22;20989;52.566;13.346;2022-07-01T10:35:49;24.90;56.40
34776;DHT22;20989;52.566;13.346;2022-07-01T10:42:08;25.70;54.20
34776;DHT22;20989;52.566;13.346;2022-07-01T10:45:11;26.10;53.10
34776;DHT22;20989;52.566;13.346;2022-07-01T10:48:21;26.30;52.40
34776;DHT22;20989;52.566;13.346;2022-07-01T10:54:50;26.50;51.50
34776;DHT22;20989;52.566;13.346;2022-07-01T10:57:54;26.60;51.20
34776;DHT22;20989;52.566;13.346;2022-07-01T11:00:54;26.70;51.00
34776;DHT22;20989;52.566;13.346;2022-07-01T11:03:57;26.70;50.70
34776;DHT22;20989;52.566;13.346;2022-07-01T11:06:58;26.80;50.70
34776;DHT22;20989;52.566;13.346;2022-07-01T11:10:00;26.80;50.60
34776;DHT22;20989;52.566;13.346;2022-07-01T11:13:02;26.80;50.50
34776;DHT22;20989;52.566;13.346;2022-07-01T11:16:03;26.80;50.40
34776;DHT22;20989;52.566;13.346;2022-07-01T11:19:06;26.90;50.40
34776;DHT22;20989;52.566;13.346;2022-07-01T11:22:06;26.90;50.40
34776;DHT22;20989;52.566;13.346;2022-07-01T11:25:11;26.90;50.40
34776;DHT22;20989;52.566;13.346;2022-07-01T11:28:14;26.90;50.40
34776;DHT22;20989;52.566;13.346;2022-07-01T11:31:14;26.90;50.70
34776;DHT22;20989;52.566;13.346;2022-07-01T11:34:16;26.80;50.30
34776;DHT22;20989;52.566;13.346;2022-07-01T11:37:17;26.80;50.60
34776;DHT22;20989;52.566;13.346;2022-07-01T11:40:36;26.90;50.60
34776;DHT22;20989;52.566;13.346;2022-07-01T11:43:38;26.90;50.50
34776;DHT22;20989;52.566;13.346;2022-07-01T11:46:39;27.00;50.50
34776;DHT22;20989;52.566;13.346;2022-07-01T11:49:47;27.20;50.10
34776;DHT22;20989;52.566;13.346;2022-07-01T11:52:47;27.30;50.00
34776;DHT22;20989;52.566;13.346;2022-07-01T11:55:48;27.30;50.00
34776;DHT22;20989;52.566;13.346;2022-07-01T11:58:50;27.40;49.90
34776;DHT22;20989;52.566;13.346;2022-07-01T12:01:53;27.40;50.00
34776;DHT22;20989;52.566;13.346;2022-07-01T12:04:54;27.50;50.20
34776;DHT22;20989;52.566;13.346;2022-07-01T12:07:54;27.50;49.80
34776;DHT22;20989;52.566;13.346;2022-07-01T12:10:56;27.50;49.90
34776;DHT22;20989;52.566;13.346;2022-07-01T12:13:59;27.50;49.80
34776;DHT22;20989;52.566;13.346;2022-07-01T12:17:03;27.60;50.00
34776;DHT22;20989;52.566;13.346;2022-07-01T12:20:05;27.60;49.80
34776;DHT22;20989;52.566;13.346;2022-07-01T12:23:13;27.60;49.80
34776;DHT22;20989;52.566;13.346;2022-07-01T12:26:14;27.60;50.00
34776;DHT22;20989;52.566;13.346;2022-07-01T12:29:19;27.70;49.90
34776;DHT22;20989;52.566;13.346;2022-07-01T12:32:28;27.70;49.90
34776;DHT22;20989;52.566;13.346;2022-07-01T12:35:29;27.70;49.80
34776;DHT22;20989;52.566;13.346;2022-07-01T12:38:38;27.70;49.80
34776;DHT22;20989;52.566;13.346;2022-07-01T12:41:39;27.70;49.80
34776;DHT22;20989;52.566;13.346;2022-07-01T12:44:45;27.80;49.70
34776;DHT22;20989;52.566;13.346;2022-07-01T12:47:50;27.80;49.80
34776;DHT22;20989;52.566;13.346;2022-07-01T12:50:58;27.80;49.70
34776;DHT22;20989;52.566;13.346;2022-07-01T12:53:59;27.80;49.80
34776;DHT22;20989;52.566;13.346;2022-07-01T12:57:01;27.80;49.70
34776;DHT22;20989;52.566;13.346;2022-07-01T13:00:02;27.80;49.70
34776;DHT22;20989;52.566;13.346;2022-07-01T13:03:03;27.90;50.00
34776;DHT22;20989;52.566;13.346;2022-07-01T13:06:04;27.90;49.80
34776;DHT22;20989;52.566;13.346;2022-07-01T13:09:05;27.90;49.70
34776;DHT22;20989;52.566;13.346;2022-07-01T13:12:06;27.90;49.80
34776;DHT22;20989;52.566;13.346;2022-07-01T13:15:07;27.90;49.60
34776;DHT22;20989;52.566;13.346;2022-07-01T13:18:07;27.90;49.60
34776;DHT22;20989;52.566;13.346;2022-07-01T13:21:09;27.90;49.50
34776;DHT22;20989;52.566;13.346;2022-07-01T13:24:09;28.00;49.50
34776;DHT22;20989;52.566;13.346;2022-07-01T13:27:10;28.00;49.70
34776;DHT22;20989;52.566;13.346;2022-07-01T13:30:12;27.80;49.50
34776;DHT22;20989;52.566;13.346;2022-07-01T13:33:13;27.90;49.50
34776;DHT22;20989;52.566;13.346;2022-07-01T13:36:14;27.90;49.30
34776;DHT22;20989;52.566;13.346;2022-07-01T13:39:15;28.00;49.50
34776;DHT22;20989;52.566;13.346;2022-07-01T13:42:16;28.00;49.20
34776;DHT22;20989;52.566;13.346;2022-07-01T13:45:17;28.00;49.20
34776;DHT22;20989;52.566;13.346;2022-07-01T13:48:17;28.00;49.10
34776;DHT22;20989;52.566;13.346;2022-07-01T13:51:18;28.00;49.30
34776;DHT22;20989;52.566;13.346;2022-07-01T13:54:19;28.00;49.10
34776;DHT22;20989;52.566;13.346;2022-07-01T13:57:19;28.00;49.20
34776;DHT22;20989;52.566;13.346;2022-07-01T14:00:20;28.10;49.40
34776;DHT22;20989;52.566;13.346;2022-07-01T14:03:21;28.10;49.20
34776;DHT22;20989;52.566;13.346;2022-07-01T14:06:21;28.10;49.10
34776;DHT22;20989;52.566;13.346;2022-07-01T14:09:22;28.10;49.20
34776;DHT22;20989;52.566;13.346;2022-07-01T14:12:22;28.10;49.10
34776;DHT22;20989;52.566;13.346;2022-07-01T14:15:23;28.10;49.10
34776;DHT22;20989;52.566;13.346;2022-07-01T14:18:24;28.10;49.20
34776;DHT22;20989;52.566;13.346;2022-07-01T14:21:24;28.10;48.90
34776;DHT22;20989;52.566;13.346;2022-07-01T14:24:26;28.10;49.30
34776;DHT22;20989;52.566;13.346;2022-07-01T14:27:27;28.10;49.10
34776;DHT22;20989;52.566;13.346;2022-07-01T14:30:27;28.20;49.10
34776;DHT22;20989;52.566;13.346;2022-07-01T14:33:28;28.20;49.30
34776;DHT22;20989;52.566;13.346;2022-07-01T14:36:29;28.20;49.10
34776;DHT22;20989;52.566;13.346;2022-07-01T14:39:29;28.20;49.30
34776;DHT22;20989;52.566;13.346;2022-07-01T14:42:30;28.20;49.20
34776;DHT22;20989;52.566;13.346;2022-07-01T14:45:31;28.20;49.20
34776;DHT22;20989;52.566;13.346;2022-07-01T14:48:32;28.20;49.20
34776;DHT22;20989;52.566;13.346;2022-07-01T14:51:35;27.40;48.70
34776;DHT22;20989;52.566;13.346;2022-07-01T14:54:37;26.80;49.80
34776;DHT22;20989;52.566;13.346;2022-07-01T14:57:38;26.30;50.80
34776;DHT22;20989;52.566;13.346;2022-07-01T15:00:39;26.30;51.20
34776;DHT22;20989;52.566;13.346;2022-07-01T15:03:40;26.20;51.90
34776;DHT22;20989;52.566;13.346;2022-07-01T15:06:41;25.50;53.70
34776;DHT22;20989;52.566;13.346;2022-07-01T15:09:42;25.60;53.60
34776;DHT22;20989;52.566;13.346;2022-07-01T15:12:43;25.50;54.00
34776;DHT22;20989;52.566;13.346;2022-07-01T15:15:44;25.30;53.70
34776;DHT22;20989;52.566;13.346;2022-07-01T15:18:44;25.90;52.70
34776;DHT22;20989;52.566;13.346;2022-07-01T15:21:45;26.40;51.20
34776;DHT22;20989;52.566;13.346;2022-07-01T15:24:46;26.70;50.80
34776;DHT22;20989;52.566;13.346;2022-07-01T15:27:46;27.00;50.90
34776;DHT22;20989;52.566;13.346;2022-07-01T15:30:47;27.20;50.50
34776;DHT22;20989;52.566;13.346;2022-07-01T15:33:48;27.30;51.10
34776;DHT22;20989;52.566;13.346;2022-07-01T15:36:49;27.30;50.60
34776;DHT22;20989;52.566;13.346;2022-07-01T15:39:50;27.20;49.90
34776;DHT22;20989;52.566;13.346;2022-07-01T15:42:50;27.10;50.90
34776;DHT22;20989;52.566;13.346;2022-07-01T15:45:51;27.10;50.40
34776;DHT22;20989;52.566;13.346;2022-07-01T15:48:52;27.00;52.10
34776;DHT22;20989;52.566;13.346;2022-07-01T15:51:52;26.90;53.80
34776;DHT22;20989;52.566;13.346;2022-07-01T15:54:53;26.90;52.20
34776;DHT22;20989;52.566;13.346;2022-07-01T15:57:54;27.00;52.00
34776;DHT22;20989;52.566;13.346;2022-07-01T16:00:54;26.90;51.30
34776;DHT22;20989;52.566;13.346;2022-07-01T16:03:55;27.00;51.60
34776;DHT22;20989;52.566;13.346;2022-07-01T16:06:56;27.00;52.30
34776;DHT22;20989;52.566;13.346;2022-07-01T16:10:06;26.30;51.40
34776;DHT22;20989;52.566;13.346;2022-07-01T16:13:12;25.70;52.10
34776;DHT22;20989;52.566;13.346;2022-07-01T16:16:19;25.30;52.60
34776;DHT22;20989;52.566;13.346;2022-07-01T16:19:21;25.00;53.40
34776;DHT22;20989;52.566;13.346;2022-07-01T16:22:25;25.20;53.00
34776;DHT22;20989;52.566;13.346;2022-07-01T16:25:28;25.00;53.30
34776;DHT22;20989;52.566;13.346;2022-07-01T16:28:31;24.90;54.30
34776;DHT22;20989;52.566;13.346;2022-07-01T16:31:32;24.80;54.10
34776;DHT22;20989;52.566;13.346;2022-07-01T16:34:33;25.10;53.30
34776;DHT22;20989;52.566;13.346;2022-07-01T16:37:35;25.10;53.20
34776;DHT22;20989;52.566;13.346;2022-07-01T16:40:39;25.00;53.20
34776;DHT22;20989;52.566;13.346;2022-07-01T16:43:47;25.00;53.10
34776;DHT22;20989;52.566;13.346;2022-07-01T16:46:53;25.00;53.40
34776;DHT22;20989;52.566;13.346;2022-07-01T16:50:06;25.00;53.10
34776;DHT22;20989;52.566;13.346;2022-07-01T16:53:13;25.10;53.50
34776;DHT22;20989;52.566;13.346;2022-07-01T16:56:20;24.70;53.80
34776;DHT22;20989;52.566;13.346;2022-07-01T16:59:22;24.90;53.80
34776;DHT22;20989;52.566;13.346;2022-07-01T17:02:23;24.70;54.20
34776;DHT22;20989;52.566;13.346;2022-07-01T17:05:25;24.90;53.80
34776;DHT22;20989;52.566;13.346;2022-07-01T17:08:26;24.80;53.60
34776;DHT22;20989;52.566;13.346;2022-07-01T17:11:29;24.60;54.30
34776;DHT22;20989;52.566;13.346;2022-07-01T17:14:32;24.70;54.10
34776;DHT22;20989;52.566;13.346;2022-07-01T17:17:33;24.50;54.40
34776;DHT22;20989;52.566;13.346;2022-07-01T17:20:36;24.60;54.00
34776;DHT22;20989;52.566;13.346;2022-07-01T17:23:45;24.50;54.70
34776;DHT22;20989;52.566;13.346;2022-07-01T17:30:03;23.70;57.30
34776;DHT22;20989;52.566;13.346;2022-07-01T17:33:06;23.20;58.10
34776;DHT22;20989;52.566;13.346;2022-07-01T17:36:13;23.00;58.90
34776;DHT22;20989;52.566;13.346;2022-07-01T17:39:16;23.60;57.00
34776;DHT22;20989;52.566;13.346;2022-07-01T17:42:17;23.50;57.90
34776;DHT22;20989;52.566;13.346;2022-07-01T17:45:18;23.90;56.90
34776;DHT22;20989;52.566;13.346;2022-07-01T17:48:23;23.80;56.40
34776;DHT22;20989;52.566;13.346;2022-07-01T17:51:27;23.60;56.30
34776;DHT22;20989;52.566;13.346;2022-07-01T17:54:29;23.40;57.40
34776;DHT22;20989;52.566;13.346;2022-07-01T17:57:30;23.70;56.00
34776;DHT22;20989;52.566;13.346;2022-07-01T18:00:31;23.80;56.30
34776;DHT22;20989;52.566;13.346;2022-07-01T18:03:33;23.90;55.30
34776;DHT22;20989;52.566;13.346;2022-07-01T18:06:35;23.40;55.90
34776;DHT22;20989;52.566;13.346;2022-07-01T18:09:36;23.70;55.70
34776;DHT22;20989;52.566;13.346;2022-07-01T18:12:43;24.20;54.50
34776;DHT22;20989;52.566;13.346;2022-07-01T18:15:48;24.50;53.10
34776;DHT22;20989;52.566;13.346;2022-07-01T18:19:24;24.70;52.70
34776;DHT22;20989;52.566;13.346;2022-07-01T18:22:27;25.00;51.90
34776;DHT22;20989;52.566;13.346;2022-07-01T18:25:34;25.20;51.50
34776;DHT22;20989;52.566;13.346;2022-07-01T18:28:43;25.40;50.90
34776;DHT22;20989;52.566;13.346;2022-07-01T18:31:44;25.50;50.60
34776;DHT22;20989;52.566;13.346;2022-07-01T18:35:00;25.60;50.60
34776;DHT22;20989;52.566;13.346;2022-07-01T18:38:03;25.70;50.30
34776;DHT22;20989;52.566;13.346;2022-07-01T18:41:03;25.80;50.20
34776;DHT22;20989;52.566;13.346;2022-07-01T18:44:04;25.80;50.00
34776;DHT22;20989;52.566;13.346;2022-07-01T18:47:05;25.80;50.20
34776;DHT22;20989;52.566;13.346;2022-07-01T18:50:07;25.80;50.00
34776;DHT22;20989;52.566;13.346;2022-07-01T18:53:08;25.80;50.10
34776;DHT22;20989;52.566;13.346;2022-07-01T18:56:09;25.80;50.00
34776;DHT22;20989;52.566;13.346;2022-07-01T18:59:09;25.90;50.00
34776;DHT22;20989;52.566;13.346;2022-07-01T19:02:12;25.80;49.80
34776;DHT22;20989;52.566;13.346;2022-07-01T19:05:14;25.90;49.90
34776;DHT22;20989;52.566;13.346;2022-07-01T19:08:14;25.90;49.80
34776;DHT22;20989;52.566;13.346;2022-07-01T19:11:15;25.90;49.80
34776;DHT22;20989;52.566;13.346;2022-07-01T19:14:17;25.90;49.70